Airfield :
LOGIN :

Register | Disclaimer

   EN    FR    IT 

 










Legend :    VFR   Marginal VFR   IFR   Intensive IFR   Very Intensive IFR
Visi :
Ceiling :
>= 8 km
>= 3000ft
5 to 8 km
1000 to 3000 ft
1500m to 5 km
500 to 1000 ft
800 to 1500m
200 to 500 ft
< 800m
< 200 ft
Symbols :   Thunderstorms  Fog  Heavy snow  Heavy precipitations  Wind > 20 kt
SIGMETs :     Misc.  Thunderstorms  Icing  Turbulence  Mountain Waves  Volcanic Ashes







- Airport Elevation : 278 ft
- IATA code : RJK


LDRI - Rijeka

CURRENT METAR :
  • 201700Z 05010KT 9999 SCT043 08/02 Q1007

EXPIRED METARs :
  • 201630Z 06011KT 9999 SCT043 08/01 Q1007
  • 201600Z 06010KT 9999 SCT043 08/02 Q1007
  • 201530Z 06011KT 9999 SCT043 08/02 Q1006
  • 201500Z 06011KT 9999 FEW043 08/02 Q1006
  • 201430Z 08008KT 050V120 9999 SCT040 09/02 Q1006

TAF TAF LDRI
Valid from the 20 at 12:00 until the 21 at 12:00 UTC


201127Z 2012/2112 04015KT 9999 BKN030 TX08/2012Z TN06/2106Z
BECMG 2014/2016 VRB02KT
PROB30
TEMPO 2015/2018 RA
No reported NOTAMs for that airfield.
1 SIGMET reported for the Zagreb FIR (LDZO) :
 
Embedded thunderstorms
LDZO SIGMET 20 VALID 201700/201900 LDZA
LDZO ZAGREB FIR EMBD TS OBS SE OF LINE N4220 E01616 - N4249 E01755 TOP FL380 STNR NC=



MET'MAP, your aeronautical weather chart ! - Copyright ORBIFLY December 2007 - Disclaimer

ORBIFLY MET'MAP TEAM :

Programming & Development : Alexandra Zaïnal
Concept & Development : Baudouin d'Aumeries
Co-Development & Prog : Marc-Olivier Méhu
Technical & hardware support : Manuel Goepfert

Contact : metmap@orbifly.com




SOURCES & CREDITS :

   NOAA